createdAt,value
2024-05-09T00:00:48.181Z,101205.47
2024-05-09T00:03:16.703Z,101205.84
2024-05-09T00:05:45.247Z,101200.56
2024-05-09T00:08:16.102Z,101201.06
2024-05-09T00:10:47.468Z,101207.84
2024-05-09T00:13:17.267Z,101195.28
2024-05-09T00:15:45.877Z,101199.00
2024-05-09T00:18:14.518Z,101199.19
2024-05-09T00:20:43.229Z,101196.69
2024-05-09T00:23:13.925Z,101193.25
2024-05-09T00:25:45.882Z,101195.97
2024-05-09T00:28:14.474Z,101196.81
2024-05-09T00:30:42.725Z,101203.59
2024-05-09T00:33:11.865Z,101200.66
2024-05-09T00:35:41.928Z,101200.13
2024-05-09T00:38:10.881Z,101200.13
2024-05-09T00:40:42.472Z,101200.19
2024-05-09T00:43:13.716Z,101193.75
2024-05-09T00:45:44.068Z,101193.25
2024-05-09T00:48:18.573Z,101196.81
2024-05-09T00:50:49.895Z,101195.94
2024-05-09T00:53:19.476Z,101202.75
2024-05-09T00:55:48.413Z,101197.47
2024-05-09T00:58:21.178Z,101200.84
2024-05-09T01:00:50.816Z,101208.16
2024-05-09T01:03:20.104Z,101208.16
2024-05-09T01:05:48.781Z,101207.63
2024-05-09T01:08:17.080Z,101207.78
2024-05-09T01:10:47.860Z,101217.28
2024-05-09T01:13:17.121Z,101219.66
2024-05-09T01:15:45.481Z,101213.06
2024-05-09T01:18:14.876Z,101214.09
2024-05-09T01:20:45.094Z,101213.78
2024-05-09T01:23:16.040Z,101212.22
2024-05-09T01:25:46.744Z,101201.75
2024-05-09T01:28:16.614Z,101207.69
2024-05-09T01:30:44.865Z,101202.97
2024-05-09T01:33:13.609Z,101213.28
2024-05-09T01:35:43.135Z,101206.78
2024-05-09T01:38:17.663Z,101201.19
2024-05-09T01:40:47.290Z,101200.56
2024-05-09T01:43:16.487Z,101205.28
2024-05-09T01:45:44.979Z,101205.47
2024-05-09T01:48:13.803Z,101204.88
2024-05-09T01:50:43.263Z,101205.25
2024-05-09T01:53:14.246Z,101204.03
2024-05-09T01:55:43.677Z,101210.81
2024-05-09T01:58:11.968Z,101209.97
2024-05-09T02:00:42.605Z,101213.91
2024-05-09T02:03:16.209Z,101218.63
2024-05-09T02:05:47.713Z,101214.03
2024-05-09T02:08:18.845Z,101229.13
2024-05-09T02:10:49.179Z,101223.53
2024-05-09T02:13:18.389Z,101220.16
2024-05-09T02:15:47.027Z,101214.06
2024-05-09T02:18:15.387Z,101220.00
2024-05-09T02:20:44.244Z,101220.84
2024-05-09T02:23:14.140Z,101216.59
2024-05-09T02:25:42.629Z,101215.75
2024-05-09T02:28:11.196Z,101216.09
2024-05-09T02:30:41.614Z,101221.00
2024-05-09T02:33:13.112Z,101212.88
2024-05-09T02:35:44.045Z,101211.69
2024-05-09T02:38:13.502Z,101208.28
2024-05-09T02:40:42.136Z,101209.84
2024-05-09T02:43:12.916Z,101205.94
2024-05-09T02:45:42.064Z,101196.78
2024-05-09T02:48:14.108Z,101205.25
2024-05-09T02:50:44.842Z,101205.91
2024-05-09T02:53:14.533Z,101201.03
2024-05-09T02:55:43.369Z,101200.53
2024-05-09T02:58:12.251Z,101201.88
2024-05-09T03:00:42.551Z,101197.28
2024-05-09T03:03:14.121Z,101195.25
2024-05-09T03:05:45.077Z,101193.03
2024-05-09T03:08:13.843Z,101200.66
2024-05-09T03:10:42.289Z,101201.00
2024-05-09T03:13:13.518Z,101205.38
2024-05-09T03:15:43.375Z,101209.13
2024-05-09T03:18:12.354Z,101206.44
2024-05-09T03:20:41.162Z,101209.31
2024-05-09T03:23:10.384Z,101206.13
2024-05-09T03:25:39.314Z,101212.00
2024-05-09T03:28:07.680Z,101206.38
2024-05-09T03:30:41.300Z,101215.88
2024-05-09T03:33:18.677Z,101213.16
2024-05-09T03:35:49.258Z,101215.53
2024-05-09T03:38:18.027Z,101216.03
2024-05-09T03:40:51.223Z,101214.97
2024-05-09T03:43:20.211Z,101220.41
2024-05-09T03:45:50.784Z,101216.69
2024-05-09T03:48:19.260Z,101227.84
2024-05-09T03:50:47.718Z,101231.25
2024-05-09T03:53:16.267Z,101225.84
2024-05-09T03:55:44.526Z,101229.09
